Time;durP1;ratioP1;P1;durP2;ratioP2;P2;SDS_P1;SDS_P2;PMS_P1;PMS_P2;Temp;Humidity;BMP_temperature;BMP_pressure;BME280_temperature;BME280_humidity;BME280_pressure;Samples;Min_cycle;Max_cycle;Signal;HPM_P1;HPM_P2
2022/05/25 00:00:40;;;;;;;7.47;5.20;;;;;;;16.96;100.00;99738.31;5073803;28;20037;-76
2022/05/25 00:03:08;;;;;;;9.10;5.13;;;;;;;16.99;100.00;99730.81;5073414;28;20401;-77
2022/05/25 00:05:38;;;;;;;8.10;5.40;;;;;;;17.12;100.00;99731.31;5073633;28;20064;-78
2022/05/25 00:08:09;;;;;;;6.68;4.95;;;;;;;17.08;100.00;99721.84;5073544;28;20048;-76
2022/05/25 00:10:37;;;;;;;9.55;4.80;;;;;;;17.05;100.00;99726.66;5073342;28;20460;-78
2022/05/25 00:13:06;;;;;;;8.25;5.40;;;;;;;17.07;100.00;99724.66;5072035;28;20048;-77
2022/05/25 00:15:35;;;;;;;6.40;5.30;;;;;;;17.02;100.00;99725.13;5072132;28;20102;-77
2022/05/25 00:18:03;;;;;;;7.80;5.35;;;;;;;16.90;100.00;99723.59;5073514;28;20047;-77
2022/05/25 00:20:31;;;;;;;7.78;5.28;;;;;;;16.88;100.00;99721.03;5073354;28;20123;-74
2022/05/25 00:23:07;;;;;;;7.32;5.57;;;;;;;16.68;100.00;99721.16;5073232;28;20045;-73
2022/05/25 00:25:37;;;;;;;8.57;5.25;;;;;;;16.59;100.00;99731.81;5073333;28;20139;-73
2022/05/25 00:28:08;;;;;;;9.73;5.70;;;;;;;16.63;100.00;99734.22;5072825;28;20044;-75
2022/05/25 00:30:36;;;;;;;8.00;5.43;;;;;;;16.71;100.00;99734.41;5073051;28;20059;-73
2022/05/25 00:33:05;;;;;;;9.80;5.65;;;;;;;16.78;100.00;99733.66;5073275;28;20045;-73
2022/05/25 00:35:36;;;;;;;9.98;5.68;;;;;;;16.84;100.00;99740.31;5073312;28;20074;-73
2022/05/25 00:38:05;;;;;;;7.15;5.32;;;;;;;16.93;100.00;99736.75;5072901;28;20485;-73
2022/05/25 00:40:38;;;;;;;10.95;5.53;;;;;;;16.88;100.00;99745.25;5072135;28;20048;-73
2022/05/25 00:43:07;;;;;;;7.63;5.10;;;;;;;16.81;100.00;99740.63;5071993;28;20045;-75
2022/05/25 00:45:40;;;;;;;7.72;5.38;;;;;;;16.82;100.00;99736.94;5071766;28;20055;-73
2022/05/25 00:48:21;;;;;;;8.52;5.78;;;;;;;16.71;100.00;99737.09;5072696;28;20063;-73
2022/05/25 00:53:36;;;;;;;9.43;6.18;;;;;;;16.41;100.00;99730.84;5071814;28;20060;-73
2022/05/25 00:56:09;;;;;;;8.00;6.30;;;;;;;16.34;100.00;99729.72;5073027;28;20390;-73
2022/05/25 00:58:39;;;;;;;9.10;6.82;;;;;;;16.44;100.00;99741.31;5073065;28;20119;-73
2022/05/25 01:01:07;;;;;;;10.52;6.78;;;;;;;16.42;100.00;99737.94;5072946;28;20047;-79
2022/05/25 01:03:35;;;;;;;12.98;7.20;;;;;;;16.44;100.00;99741.31;5071599;28;20049;-74
2022/05/25 01:06:09;;;;;;;9.73;7.00;;;;;;;16.40;100.00;99739.88;5072929;28;20401;-76
2022/05/25 01:08:54;;;;;;;9.02;6.68;;;;;;;16.18;100.00;99741.03;5072988;28;20052;-75
2022/05/25 01:11:41;;;;;;;10.05;6.95;;;;;;;16.09;100.00;99743.72;5072712;28;20041;-74
2022/05/25 01:14:23;;;;;;;13.38;6.85;;;;;;;16.29;100.00;99762.41;5072659;28;20066;-74
2022/05/25 01:17:00;;;;;;;11.23;7.10;;;;;;;16.25;100.00;99768.22;5071877;28;20554;-74
2022/05/25 01:19:55;;;;;;;9.82;6.97;;;;;;;16.28;100.00;99782.25;5071184;28;20057;-74
2022/05/25 01:22:44;;;;;;;10.18;7.00;;;;;;;16.16;100.00;99766.38;5072919;28;20102;-72
2022/05/25 01:25:21;;;;;;;10.27;7.00;;;;;;;16.25;100.00;99757.47;5072345;28;20394;-75
2022/05/25 01:27:55;;;;;;;10.30;6.72;;;;;;;16.22;100.00;99769.38;5072812;28;20048;-73
2022/05/25 01:30:31;;;;;;;8.80;6.47;;;;;;;16.10;100.00;99775.00;5071292;28;20045;-73
2022/05/25 01:33:15;;;;;;;10.25;6.25;;;;;;;16.28;100.00;99774.19;5072690;28;20040;-74
2022/05/25 01:35:59;;;;;;;8.98;6.35;;;;;;;16.14;100.00;99765.69;5073053;28;20040;-73
2022/05/25 01:38:32;;;;;;;6.38;5.57;;;;;;;16.15;100.00;99767.38;5074405;28;20053;-72
2022/05/25 01:41:09;;;;;;;8.68;6.10;;;;;;;16.07;100.00;99772.59;5076315;28;20473;-71
2022/05/25 01:43:43;;;;;;;8.35;6.40;;;;;;;16.03;100.00;99772.88;5076171;28;20051;-72
2022/05/25 01:46:22;;;;;;;8.95;6.40;;;;;;;15.93;100.00;99782.78;5075685;28;20097;-72
2022/05/25 01:48:53;;;;;;;14.25;6.82;;;;;;;16.07;100.00;99780.66;5076373;28;20094;-72
2022/05/25 01:51:26;;;;;;;8.02;6.40;;;;;;;16.10;100.00;99780.38;5075963;28;20095;-71
2022/05/25 01:53:59;;;;;;;8.77;6.00;;;;;;;16.16;100.00;99769.06;5076273;28;20131;-73
2022/05/25 01:56:31;;;;;;;10.27;6.70;;;;;;;16.03;100.00;99769.34;5075518;28;20044;-73
2022/05/25 01:59:04;;;;;;;10.40;6.00;;;;;;;15.90;100.00;99769.56;5075622;28;20630;-73
2022/05/25 02:01:36;;;;;;;8.93;6.43;;;;;;;15.88;100.00;99771.56;5075692;28;20040;-73
2022/05/25 02:04:22;;;;;;;9.98;6.60;;;;;;;15.77;100.00;99768.13;5076081;28;20075;-73
2022/05/25 02:07:05;;;;;;;9.48;6.38;;;;;;;15.69;100.00;99777.72;5075955;28;20068;-73
2022/05/25 02:09:46;;;;;;;9.13;5.80;;;;;;;15.85;100.00;99771.00;5074114;28;20051;-72
2022/05/25 02:12:30;;;;;;;7.95;6.35;;;;;;;15.97;100.00;99770.72;5075523;28;20338;-72
2022/05/25 02:15:03;;;;;;;;;;;;;;;15.91;100.00;99763.22;5074872;28;20048;-71
2022/05/25 02:17:41;;;;;;;7.40;5.63;;;;;;;15.79;100.00;99755.41;5075438;28;19927;-72
2022/05/25 02:20:20;;;;;;;7.82;5.78;;;;;;;15.79;100.00;99752.72;5075687;28;20090;-71
2022/05/25 02:22:51;;;;;;;10.32;6.55;;;;;;;15.77;100.00;99758.22;5074385;28;20044;-72
2022/05/25 02:25:26;;;;;;;9.43;6.45;;;;;;;15.68;100.00;99764.44;5075263;28;20055;-72
2022/05/25 02:28:00;;;;;;;8.98;5.85;;;;;;;15.77;100.00;99754.69;5075548;28;20119;-72
2022/05/25 02:30:32;;;;;;;8.98;6.00;;;;;;;15.78;100.00;99749.16;5075175;28;20124;-72
2022/05/25 02:33:07;;;;;;;7.20;5.70;;;;;;;15.70;100.00;99751.69;5073724;28;20056;-72
2022/05/25 02:35:37;;;;;;;8.88;6.45;;;;;;;15.67;100.00;99741.22;5073725;28;20048;-72
2022/05/25 02:38:08;;;;;;;10.10;6.30;;;;;;;15.75;100.00;99749.47;5075180;28;20045;-72
2022/05/25 02:40:38;;;;;;;8.50;6.18;;;;;;;15.59;100.00;99741.00;5075106;28;20055;-72
2022/05/25 02:43:08;;;;;;;10.13;6.70;;;;;;;15.60;100.00;99750.78;5075196;28;20048;-72
2022/05/25 02:45:38;;;;;;;8.02;6.22;;;;;;;15.69;100.00;99750.00;5074949;28;20040;-72
2022/05/25 02:48:10;;;;;;;10.23;6.65;;;;;;;15.76;100.00;99748.47;5074054;28;20044;-72
2022/05/25 02:50:39;;;;;;;9.10;6.55;;;;;;;15.68;100.00;99748.28;5074917;28;20401;-72
2022/05/25 02:53:11;;;;;;;8.90;6.53;;;;;;;15.57;100.00;99745.69;5074583;28;20052;-72
2022/05/25 02:55:40;;;;;;;9.48;6.85;;;;;;;15.45;100.00;99745.78;5075006;28;20036;-73
2022/05/25 02:58:08;;;;;;;9.77;7.10;;;;;;;15.52;100.00;99753.28;5074381;28;20493;-75
2022/05/25 03:00:37;;;;;;;10.23;7.07;;;;;;;15.53;100.00;99746.94;5074422;28;20044;-74
2022/05/25 03:03:05;;;;;;;12.27;7.25;;;;;;;15.45;100.00;99750.31;5073663;28;20457;-74
2022/05/25 03:05:36;;;;;;;8.80;7.03;;;;;;;15.50;100.00;99744.53;5074351;28;20068;-74
2022/05/25 03:08:05;;;;;;;9.30;6.57;;;;;;;15.41;100.00;99747.03;5074682;28;20037;-75
2022/05/25 03:10:33;;;;;;;9.55;7.22;;;;;;;15.37;100.00;99751.00;5073986;28;20470;-74
2022/05/25 03:13:02;;;;;;;9.40;8.15;;;;;;;15.64;100.00;99741.50;5073363;28;20047;-74
2022/05/25 03:15:30;;;;;;;10.23;7.18;;;;;;;15.58;100.00;99752.75;5074194;28;20047;-74
2022/05/25 03:17:59;;;;;;;10.27;6.95;;;;;;;15.53;100.00;99755.84;5073435;28;20056;-74
2022/05/25 03:20:28;;;;;;;8.98;6.70;;;;;;;15.67;100.00;99768.09;5074116;28;20410;-74
2022/05/25 03:22:57;;;;;;;9.35;7.18;;;;;;;15.52;100.00;99764.03;5072978;28;20047;-74
2022/05/25 03:25:25;;;;;;;9.35;6.68;;;;;;;15.65;100.00;99751.28;5073879;28;20044;-74
2022/05/25 03:27:56;;;;;;;9.80;7.40;;;;;;;15.46;100.00;99755.56;5074319;28;20051;-74
2022/05/25 03:30:24;;;;;;;10.18;7.55;;;;;;;15.42;100.00;99753.25;5073973;28;20482;-74
2022/05/25 03:32:53;;;;;;;12.35;7.47;;;;;;;15.34;100.00;99759.28;5072789;28;20040;-74
2022/05/25 03:35:21;;;;;;;11.50;7.35;;;;;;;15.34;100.00;99767.34;5073882;28;20083;-74
2022/05/25 03:37:49;;;;;;;10.63;7.28;;;;;;;15.40;100.00;99772.19;5074081;28;20123;-74
2022/05/25 03:40:19;;;;;;;10.45;7.75;;;;;;;15.61;100.00;99766.81;5073871;28;20067;-76
2022/05/25 03:42:48;;;;;;;11.68;7.28;;;;;;;15.73;100.00;99772.94;5073850;28;20044;-74
2022/05/25 03:45:18;;;;;;;8.63;7.15;;;;;;;15.78;100.00;99775.22;5072749;28;20098;-75
2022/05/25 03:47:49;;;;;;;9.15;7.20;;;;;;;15.96;100.00;99774.41;5073992;28;20474;-75
2022/05/25 03:50:18;;;;;;;9.43;7.50;;;;;;;16.20;100.00;99778.56;5073729;28;20072;-74
2022/05/25 03:52:46;;;;;;;11.32;7.40;;;;;;;16.24;100.00;99777.31;5073640;28;20044;-75
2022/05/25 03:55:14;;;;;;;9.02;6.93;;;;;;;16.82;100.00;99780.88;5073856;28;20044;-74
2022/05/25 03:57:44;;;;;;;10.55;5.93;;;;;;;17.46;100.00;99782.81;5073520;28;20036;-74
2022/05/25 04:00:14;;;;;;;9.80;5.95;;;;;;;17.65;100.00;99778.34;5073284;28;20393;-75
2022/05/25 04:02:42;;;;;;;7.93;6.07;;;;;;;18.04;100.00;99792.53;5073556;28;20401;-75
2022/05/25 04:05:12;;;;;;;9.77;6.40;;;;;;;17.81;100.00;99793.94;5073504;28;20033;-74
2022/05/25 04:07:42;;;;;;;8.40;5.70;;;;;;;17.78;100.00;99787.00;5073309;28;20064;-73
2022/05/25 04:10:13;;;;;;;7.93;5.50;;;;;;;18.39;100.00;99785.47;5073654;28;20047;-73
2022/05/25 04:12:42;;;;;;;6.80;5.13;;;;;;;18.72;100.00;99787.53;5073254;28;20078;-73
2022/05/25 04:15:14;;;;;;;8.60;4.85;;;;;;;19.38;100.00;99789.69;5073478;28;20036;-72
2022/05/25 04:17:47;;;;;;;7.03;4.45;;;;;;;19.20;100.00;99785.34;5073396;28;20123;-73
2022/05/25 04:20:16;;;;;;;8.68;4.43;;;;;;;18.28;100.00;99790.09;5072070;28;20044;-73
2022/05/25 04:22:45;;;;;;;7.88;4.50;;;;;;;19.06;100.00;99784.06;5071949;28;20053;-73
2022/05/25 04:25:15;;;;;;;7.97;4.60;;;;;;;18.11;100.00;99785.53;5073217;28;20105;-73
2022/05/25 04:27:45;;;;;;;6.97;4.93;;;;;;;18.69;100.00;99784.28;5073167;28;20040;-74
2022/05/25 04:30:19;;;;;;;7.85;4.60;;;;;;;18.65;100.00;99786.44;5073025;28;20036;-74
2022/05/25 04:32:47;;;;;;;7.22;4.40;;;;;;;18.33;100.00;99802.28;5072183;28;20060;-74
2022/05/25 04:35:16;;;;;;;7.50;4.75;;;;;;;17.97;100.00;99807.63;5072040;28;20083;-76
2022/05/25 04:37:52;;;;;;;7.70;4.93;;;;;;;17.57;100.00;99805.25;5071727;28;20048;-72
2022/05/25 04:40:25;;;;;;;7.55;5.15;;;;;;;17.43;100.00;99798.47;5071698;28;20052;-76
2022/05/25 04:42:54;;;;;;;7.50;5.20;;;;;;;17.48;100.00;99801.59;5072953;28;20482;-74
2022/05/25 04:45:26;;;;;;;9.00;5.28;;;;;;;17.55;100.00;99802.66;5072871;28;20044;-74
2022/05/25 04:47:56;;;;;;;7.35;4.85;;;;;;;17.58;100.00;99793.44;5072872;28;20064;-73
2022/05/25 04:50:26;;;;;;;9.93;5.13;;;;;;;17.45;100.00;99791.91;5071612;28;20490;-72
2022/05/25 04:52:56;;;;;;;8.52;5.60;;;;;;;17.56;100.00;99796.28;5071840;28;20448;-73
2022/05/25 04:58:18;;;;;;;9.60;5.88;;;;;;;18.06;100.00;99789.69;5073020;28;20041;-72
2022/05/25 05:00:48;;;;;;;11.35;5.47;;;;;;;18.25;100.00;99793.13;5072698;28;20043;-73
2022/05/25 05:03:16;;;;;;;10.07;5.63;;;;;;;18.04;100.00;99795.22;5073225;28;20045;-72
2022/05/25 05:05:45;;;;;;;10.93;5.38;;;;;;;18.17;100.00;99803.81;5072638;28;20572;-71
2022/05/25 05:08:14;;;;;;;6.68;5.68;;;;;;;18.31;100.00;99800.59;5072589;28;20040;-73
2022/05/25 05:10:42;;;;;;;9.10;5.00;;;;;;;18.44;100.00;99799.38;5073020;28;20044;-69
2022/05/25 05:13:11;;;;;;;8.10;5.50;;;;;;;18.29;100.00;99802.59;5075065;28;20072;-70
2022/05/25 05:15:41;;;;;;;9.43;5.05;;;;;;;18.40;100.00;99800.69;5074791;28;20106;-71
2022/05/25 05:18:12;;;;;;;8.80;5.15;;;;;;;18.38;100.00;99802.69;5075381;28;20140;-70
2022/05/25 05:20:40;;;;;;;6.72;5.00;;;;;;;18.72;100.00;99795.66;5072894;28;20079;-74
2022/05/25 05:23:12;;;;;;;6.43;5.18;;;;;;;19.37;100.00;99803.38;5066056;28;20124;-75
2022/05/25 05:25:40;;;;;;;6.80;5.22;;;;;;;19.41;100.00;99804.75;5056163;28;20400;-75
2022/05/25 05:28:14;;;;;;;6.95;5.00;;;;;;;20.98;100.00;99806.81;5054822;28;20045;-77
2022/05/25 05:30:48;;;;;;;6.97;5.22;;;;;;;21.45;100.00;99814.25;5055961;28;20076;-76
2022/05/25 05:33:23;;;;;;;8.50;4.80;;;;;;;21.29;100.00;99823.25;5055145;28;20132;-74
2022/05/25 05:36:00;;;;;;;7.28;4.47;;;;;;;22.04;100.00;99825.59;5056432;28;20120;-74
2022/05/25 05:38:29;;;;;;;8.80;4.28;;;;;;;22.89;100.00;99827.53;5054918;28;20059;-74
2022/05/25 05:40:58;;;;;;;9.30;4.13;;;;;;;22.64;100.00;99826.81;5056219;28;20047;-74
2022/05/25 05:43:27;;;;;;;5.85;4.22;;;;;;;22.93;100.00;99837.00;5071182;28;20049;-78
2022/05/25 05:45:56;;;;;;;9.15;4.13;;;;;;;23.12;100.00;99841.94;5071344;28;20044;-74
2022/05/25 05:48:30;;;;;;;6.43;4.10;;;;;;;23.04;100.00;99848.31;5054894;28;20464;-74
2022/05/25 05:50:58;;;;;;;9.60;4.20;;;;;;;23.66;100.00;99844.53;5054758;28;20063;-74
2022/05/25 05:53:28;;;;;;;7.05;4.57;;;;;;;23.64;100.00;99841.13;5054388;28;20053;-78
2022/05/25 05:55:58;;;;;;;6.20;4.07;;;;;;;23.33;100.00;99847.53;5066958;28;20040;-75
2022/05/25 05:58:27;;;;;;;6.88;4.00;;;;;;;23.03;100.00;99845.78;5071232;28;20049;-75
2022/05/25 06:00:55;;;;;;;7.47;3.80;;;;;;;23.70;100.00;99848.56;5055718;28;20371;-75
2022/05/25 06:03:23;;;;;;;8.02;3.90;;;;;;;21.81;100.00;99862.66;5055860;28;20044;-74
2022/05/25 06:05:53;;;;;;;6.75;3.78;;;;;;;23.07;100.00;99856.13;5054109;28;20051;-73
2022/05/25 06:08:24;;;;;;;6.50;4.03;;;;;;;23.01;100.00;99856.84;5054066;28;20535;-69
2022/05/25 06:10:53;;;;;;;5.95;3.70;;;;;;;23.47;100.00;99850.50;5054119;28;20383;-71
2022/05/25 06:13:21;;;;;;;7.13;3.95;;;;;;;24.21;100.00;99854.94;5055437;28;20151;-72
2022/05/25 06:21:25;;;;;;;6.00;3.42;;;;;;;25.02;100.00;99853.00;5055447;28;20457;-69
2022/05/25 06:23:54;;;;;;;6.55;3.35;;;;;;;25.54;95.85;99857.19;5053870;28;20566;-73
2022/05/25 06:26:25;;;;;;;3.88;2.78;;;;;;;24.86;72.72;99861.38;5055429;28;20049;-73
2022/05/25 06:28:54;;;;;;;7.68;3.30;;;;;;;25.41;69.54;99851.66;5054846;28;20407;-73
2022/05/25 06:31:22;;;;;;;5.88;3.03;;;;;;;25.35;65.93;99853.28;5055067;28;20076;-73
2022/05/25 06:33:50;;;;;;;6.95;3.10;;;;;;;25.43;65.64;99849.56;5054911;28;20083;-69
2022/05/25 06:36:21;;;;;;;7.53;2.80;;;;;;;24.66;68.32;99847.53;5053727;28;20049;-69
2022/05/25 06:38:51;;;;;;;8.00;3.30;;;;;;;26.49;60.17;99847.50;5053528;28;20080;-79
2022/05/25 06:41:20;;;;;;;5.35;2.90;;;;;;;26.45;55.00;99848.97;5070462;28;20055;-71
2022/05/25 06:43:48;;;;;;;5.47;3.00;;;;;;;25.19;57.03;99841.78;5053433;28;20478;-70
2022/05/25 06:46:19;;;;;;;4.95;3.10;;;;;;;25.10;58.38;99849.28;5053371;28;20592;-70
2022/05/25 06:48:49;;;;;;;6.07;3.00;;;;;;;25.13;57.30;99843.44;5070067;28;20072;-72
2022/05/25 06:51:20;;;;;;;6.43;3.13;;;;;;;25.39;57.41;99845.56;5054760;28;20136;-71
2022/05/25 06:53:49;;;;;;;5.18;2.95;;;;;;;26.25;55.05;99852.44;5069632;28;20151;-72
2022/05/25 06:56:20;;;;;;;5.85;3.20;;;;;;;26.19;54.37;99850.50;5053103;28;20053;-72
2022/05/25 06:58:49;;;;;;;7.60;3.13;;;;;;;26.09;54.49;99850.03;5054556;28;20076;-73
2022/05/25 07:01:17;;;;;;;5.32;3.13;;;;;;;25.24;55.83;99842.06;5053416;28;20044;-71
2022/05/25 07:03:46;;;;;;;6.13;3.17;;;;;;;25.13;57.22;99831.69;5069639;28;20099;-71
2022/05/25 07:06:17;;;;;;;4.47;3.30;;;;;;;25.09;57.91;99837.53;5054345;28;20055;-73
2022/05/25 07:08:46;;;;;;;6.65;3.13;;;;;;;25.06;58.06;99835.19;5053140;28;20048;-74
2022/05/25 07:11:21;;;;;;;6.70;3.20;;;;;;;25.03;57.89;99834.75;5054492;28;20055;-74
2022/05/25 07:13:50;;;;;;;5.68;3.63;;;;;;;25.06;58.70;99839.78;5054648;28;20041;-73
2022/05/25 07:16:20;;;;;;;7.00;3.30;;;;;;;25.02;58.21;99836.63;5054033;28;20474;-73
2022/05/25 07:18:49;;;;;;;6.22;3.58;;;;;;;24.72;59.72;99835.03;5053852;28;20041;-73
2022/05/25 07:21:19;;;;;;;5.85;3.38;;;;;;;24.40;59.91;99837.16;5054396;28;20037;-74
2022/05/25 07:23:50;;;;;;;5.22;3.50;;;;;;;23.78;62.26;99837.59;5052679;28;20044;-75
2022/05/25 07:26:22;;;;;;;7.75;3.60;;;;;;;24.06;63.22;99851.41;5053134;28;20087;-74
2022/05/25 07:28:52;;;;;;;6.97;3.65;;;;;;;24.14;61.98;99850.47;5052666;28;20505;-74
2022/05/25 07:31:26;;;;;;;8.60;3.72;;;;;;;24.11;62.70;99850.81;5069442;28;20486;-74
2022/05/25 07:34:01;;;;;;;5.40;3.42;;;;;;;24.17;63.61;99848.19;5051948;28;20132;-74
2022/05/25 07:36:31;;;;;;;5.95;3.40;;;;;;;23.90;62.60;99830.63;5054173;28;20045;-74
2022/05/25 07:39:04;;;;;;;6.55;3.90;;;;;;;23.52;66.87;99839.88;5053891;28;20458;-74
2022/05/25 07:41:39;;;;;;;7.03;3.55;;;;;;;23.75;67.42;99837.97;5054079;28;20132;-74
2022/05/25 07:44:11;;;;;;;6.75;3.80;;;;;;;23.96;65.21;99829.06;5069503;28;20128;-74
2022/05/25 07:46:39;;;;;;;6.75;3.65;;;;;;;23.98;66.29;99827.81;5053283;28;20045;-74
2022/05/25 07:49:07;;;;;;;6.00;3.90;;;;;;;24.21;64.99;99832.28;5052472;28;20053;-74
2022/05/25 07:51:36;;;;;;;5.80;3.72;;;;;;;24.18;65.19;99843.59;5052567;28;20079;-74
2022/05/25 07:54:05;;;;;;;8.48;4.10;;;;;;;24.17;63.26;99842.75;5052498;28;20076;-74
2022/05/25 07:56:39;;;;;;;5.85;4.05;;;;;;;24.20;64.00;99831.44;5053472;28;20514;-74
2022/05/25 07:59:11;;;;;;;6.70;4.27;;;;;;;24.11;63.84;99831.75;5052568;28;20045;-74
2022/05/25 08:07:20;;;;;;;6.65;3.95;;;;;;;23.93;67.11;99845.75;5069026;28;20140;-74
2022/05/25 08:09:54;;;;;;;6.63;3.88;;;;;;;24.11;68.35;99840.75;5051879;28;20049;-74
2022/05/25 08:12:25;;;;;;;8.50;4.05;;;;;;;24.11;65.17;99853.53;5053134;28;20040;-74
2022/05/25 08:14:53;;;;;;;9.15;4.40;;;;;;;24.11;66.97;99859.84;5052103;28;20049;-75
2022/05/25 08:17:21;;;;;;;7.95;4.30;;;;;;;24.30;65.53;99863.84;5053416;28;20069;-74
2022/05/25 08:19:50;;;;;;;6.43;4.22;;;;;;;24.23;64.99;99854.78;5051777;28;20075;-74
2022/05/25 08:22:19;;;;;;;9.32;4.50;;;;;;;24.16;66.36;99854.69;5053193;28;20390;-74
2022/05/25 08:24:47;;;;;;;7.78;3.95;;;;;;;24.18;67.35;99843.59;5051680;28;20457;-74
2022/05/25 08:27:16;;;;;;;7.55;4.00;;;;;;;24.13;67.04;99838.72;5052264;28;20049;-74
2022/05/25 08:29:45;;;;;;;8.13;4.95;;;;;;;24.22;66.73;99836.69;5052967;28;20049;-74
2022/05/25 08:32:15;;;;;;;7.10;4.32;;;;;;;24.15;68.88;99843.97;5053271;28;20048;-74
2022/05/25 08:34:44;;;;;;;6.85;4.43;;;;;;;24.17;67.87;99844.63;5052740;28;20049;-74
2022/05/25 08:37:12;;;;;;;8.40;4.93;;;;;;;24.33;67.25;99838.16;5053219;28;20041;-74
2022/05/25 08:39:41;;;;;;;6.43;4.57;;;;;;;24.03;68.46;99829.13;5051502;28;20051;-74
2022/05/25 08:42:18;;;;;;;8.68;4.93;;;;;;;24.07;67.73;99834.00;5052795;28;20447;-74
2022/05/25 08:44:50;;;;;;;5.75;4.30;;;;;;;24.17;68.55;99836.44;5051709;28;20099;-74
2022/05/25 08:47:19;;;;;;;6.85;5.10;;;;;;;24.17;68.16;99841.91;5071852;28;20401;-74
2022/05/25 08:49:51;;;;;;;7.25;4.72;;;;;;;24.26;66.66;99833.41;5056676;28;20486;-74
2022/05/25 08:52:31;;;;;;;6.82;4.85;;;;;;;24.28;65.52;99833.22;5056020;28;20055;-74
2022/05/25 08:55:00;;;;;;;6.47;4.70;;;;;;;24.39;66.80;99840.94;5057173;28;20060;-74
2022/05/25 08:57:33;;;;;;;7.45;4.88;;;;;;;24.34;66.54;99832.50;5057041;28;20072;-74
2022/05/25 09:00:06;;;;;;;12.52;5.63;;;;;;;24.39;67.19;99832.75;5056892;28;20041;-74
2022/05/25 09:02:45;;;;;;;8.93;5.78;;;;;;;24.37;67.72;99834.84;5056601;28;20040;-74
2022/05/25 09:05:20;;;;;;;7.32;5.25;;;;;;;24.41;67.54;99830.69;5055719;28;20115;-74
2022/05/25 09:07:58;;;;;;;8.80;5.93;;;;;;;24.45;67.03;99834.72;5056462;28;20044;-75
2022/05/25 09:10:28;;;;;;;9.00;5.43;;;;;;;24.55;67.30;99826.25;5055278;28;20045;-74
2022/05/25 09:13:01;;;;;;;10.57;5.60;;;;;;;24.59;66.52;99823.97;5055370;28;20077;-75
2022/05/25 09:15:36;;;;;;;11.18;5.63;;;;;;;24.74;66.09;99828.34;5056596;28;20041;-74
2022/05/25 09:18:09;;;;;;;7.32;5.32;;;;;;;24.77;66.40;99835.28;5056557;28;20505;-74
2022/05/25 09:20:42;;;;;;;7.57;5.13;;;;;;;24.69;66.36;99830.78;5055460;28;20053;-74
2022/05/25 09:23:12;;;;;;;7.38;5.47;;;;;;;24.78;65.11;99835.09;5072144;28;20049;-74
2022/05/25 09:25:43;;;;;;;7.50;5.85;;;;;;;24.91;65.16;99834.38;5055020;28;20483;-74
2022/05/25 09:28:19;;;;;;;7.57;5.72;;;;;;;24.93;64.85;99829.56;5056325;28;20063;-74
2022/05/25 09:30:52;;;;;;;9.68;5.70;;;;;;;24.93;63.58;99826.84;5054857;28;20079;-74
2022/05/25 09:33:31;;;;;;;8.52;4.80;;;;;;;24.93;63.16;99824.13;5055259;28;20552;-74
2022/05/25 09:36:05;;;;;;;9.55;5.05;;;;;;;24.99;64.37;99828.78;5071514;28;20167;-74
2022/05/25 09:38:43;;;;;;;8.60;5.43;;;;;;;25.06;63.40;99837.91;5056359;28;20075;-74
2022/05/25 09:41:13;;;;;;;9.35;6.00;;;;;;;25.09;62.89;99832.06;5071927;28;20052;-74
2022/05/25 09:43:43;;;;;;;8.45;5.95;;;;;;;25.02;64.29;99833.91;5054831;28;20056;-73
2022/05/25 09:46:23;;;;;;;9.13;5.90;;;;;;;24.74;66.41;99827.50;5056253;28;20041;-73
2022/05/25 09:48:54;;;;;;;10.10;6.45;;;;;;;24.41;67.60;99838.84;5054514;28;20478;-73
2022/05/25 09:51:31;;;;;;;8.55;6.22;;;;;;;24.46;68.66;99827.41;5055944;28;20128;-73
2022/05/25 09:54:05;;;;;;;10.13;6.57;;;;;;;24.74;67.50;99832.94;5055706;28;20045;-75
2022/05/25 09:56:40;;;;;;;10.73;6.15;;;;;;;24.98;66.59;99834.44;5054596;28;20052;-73
2022/05/25 09:59:14;;;;;;;10.23;6.35;;;;;;;25.09;66.40;99831.19;5054315;28;20548;-72
2022/05/25 10:01:47;;;;;;;8.88;6.22;;;;;;;25.16;66.34;99828.53;5054723;28;20132;-73
2022/05/25 10:04:18;;;;;;;8.98;6.38;;;;;;;25.29;65.47;99826.78;5054491;28;20053;-72
2022/05/25 10:06:50;;;;;;;12.15;6.53;;;;;;;25.20;66.24;99827.13;5055716;28;20048;-75
2022/05/25 10:09:21;;;;;;;9.10;6.20;;;;;;;25.40;64.46;99830.84;5055740;28;20079;-73
2022/05/25 10:11:51;;;;;;;10.40;6.03;;;;;;;25.39;64.25;99832.75;5055564;28;20041;-73
2022/05/25 10:14:28;;;;;;;8.65;5.78;;;;;;;25.68;63.65;99830.84;5055449;28;20049;-73
2022/05/25 10:17:05;;;;;;;9.93;6.00;;;;;;;25.80;63.37;99829.25;5054058;28;20057;-74
2022/05/25 10:19:44;;;;;;;10.75;7.10;;;;;;;25.63;64.11;99831.44;5055621;28;20043;-72
2022/05/25 10:22:36;;;;;;;8.82;6.28;;;;;;;25.76;63.79;99825.22;5054135;28;20056;-75
2022/05/25 10:25:09;;;;;;;9.30;6.10;;;;;;;25.48;64.87;99819.78;5054963;28;20055;-75
2022/05/25 10:27:41;;;;;;;9.55;6.07;;;;;;;25.42;66.13;99826.03;5070821;28;20047;-75
2022/05/25 10:39:14;;;;;;;11.88;5.78;;;;;;;26.37;62.02;99825.38;5070340;28;20053;-73
2022/05/25 10:41:44;;;;;;;9.10;6.38;;;;;;;26.54;59.74;99820.38;5054987;28;20048;-74
2022/05/25 10:44:20;;;;;;;11.55;6.20;;;;;;;26.68;60.27;99821.25;5053469;28;20044;-72
2022/05/25 10:46:54;;;;;;;9.95;6.85;;;;;;;26.51;59.45;99820.78;5053687;28;20451;-78
2022/05/25 10:49:30;;;;;;;10.00;6.20;;;;;;;26.38;59.94;99821.59;5053440;28;20552;-74
2022/05/25 10:52:02;;;;;;;8.77;5.97;;;;;;;26.37;61.06;99824.50;5054677;28;20091;-75
2022/05/25 10:54:47;;;;;;;9.27;6.22;;;;;;;26.09;60.52;99822.69;5055036;28;20052;-74
2022/05/25 10:57:36;;;;;;;10.02;6.28;;;;;;;25.77;63.08;99818.75;5053752;28;20056;-74
2022/05/25 11:00:10;;;;;;;12.20;6.90;;;;;;;26.05;61.94;99815.94;5069988;28;20144;-74
2022/05/25 11:02:51;;;;;;;10.23;6.38;;;;;;;26.23;62.12;99818.97;5054597;28;20393;-74
2022/05/25 11:05:32;;;;;;;7.97;6.27;;;;;;;26.52;60.80;99817.81;5054428;28;20037;-74
2022/05/25 11:08:09;;;;;;;8.00;6.80;;;;;;;26.72;59.00;99820.63;5052766;28;20091;-74
2022/05/25 11:10:47;;;;;;;10.98;6.97;;;;;;;26.64;59.28;99815.34;5054334;28;20037;-74
2022/05/25 11:13:34;;;;;;;9.20;6.60;;;;;;;26.66;58.64;99812.41;5053009;28;20502;-74
2022/05/25 11:16:22;;;;;;;9.73;6.18;;;;;;;26.60;60.83;99811.34;5054247;28;20045;-74
2022/05/25 11:19:23;;;;;;;9.30;6.25;;;;;;;26.50;59.80;99816.34;5054108;28;20052;-76
2022/05/25 11:22:04;;;;;;;10.82;6.82;;;;;;;26.53;60.19;99818.66;5054235;28;20037;-75
2022/05/25 11:24:47;;;;;;;10.63;6.53;;;;;;;26.07;60.29;99826.69;5054387;28;20136;-74
2022/05/25 11:27:29;;;;;;;9.00;5.88;;;;;;;26.43;60.73;99823.69;5052762;28;20052;-74
2022/05/25 11:30:06;;;;;;;10.07;6.20;;;;;;;26.47;58.43;99817.63;5069351;28;20053;-74
2022/05/25 11:33:07;;;;;;;8.82;6.07;;;;;;;26.52;59.19;99817.81;5052993;28;20242;-74
2022/05/25 11:35:45;;;;;;;9.48;5.82;;;;;;;26.86;58.97;99829.69;5052994;28;20122;-74
2022/05/25 11:38:28;;;;;;;9.15;5.88;;;;;;;26.65;58.71;99825.25;5053886;28;20052;-74
2022/05/25 11:41:12;;;;;;;8.77;5.78;;;;;;;26.12;59.79;99829.63;5051961;28;20071;-74
2022/05/25 11:44:14;;;;;;;10.00;5.97;;;;;;;26.30;58.24;99834.56;5053682;28;20048;-74
2022/05/25 11:46:44;;;;;;;9.98;5.68;;;;;;;26.43;58.91;99831.88;5052875;28;20455;-74
2022/05/25 11:49:48;;;;;;;17.75;6.60;;;;;;;26.57;57.92;99827.31;5069241;28;20493;-74
2022/05/25 11:52:39;;;;;;;12.27;6.03;;;;;;;26.73;57.34;99835.13;5053916;28;20045;-74
2022/05/25 11:55:17;;;;;;;15.18;5.55;;;;;;;26.84;56.80;99828.22;5068783;28;20114;-74
2022/05/25 11:57:53;;;;;;;9.57;5.43;;;;;;;26.91;56.26;99827.16;5069076;28;20044;-74
2022/05/25 12:00:31;;;;;;;8.23;5.72;;;;;;;26.60;57.40;99825.00;5052642;28;20048;-74
2022/05/25 12:03:19;;;;;;;9.65;5.32;;;;;;;27.07;57.12;99809.53;5052154;28;20049;-75
2022/05/25 12:06:04;;;;;;;8.52;5.72;;;;;;;27.27;55.78;99817.75;5068799;28;20490;-74
2022/05/25 12:08:51;;;;;;;9.85;5.60;;;;;;;26.69;56.13;99815.56;5052455;28;20049;-74
2022/05/25 12:11:33;;;;;;;8.55;5.50;;;;;;;26.51;56.98;99821.63;5052134;28;20049;-74
2022/05/25 12:14:16;;;;;;;10.35;6.75;;;;;;;27.00;56.44;99819.59;5068748;28;20053;-74
2022/05/25 12:16:47;;;;;;;8.68;5.13;;;;;;;27.04;56.50;99816.28;5052141;28;20045;-74
2022/05/25 12:19:18;;;;;;;8.23;5.10;;;;;;;27.22;56.08;99821.16;5051808;28;20087;-74